Time;durP1;ratioP1;P1;durP2;ratioP2;P2;SDS_P1;SDS_P2;PMS_P1;PMS_P2;Temp;Humidity;BMP_temperature;BMP_pressure;BME280_temperature;BME280_humidity;BME280_pressure;Samples;Min_cycle;Max_cycle;Signal;HPM_P1;HPM_P2
2021/12/10 00:01:11;;;;;;;49.15;28.60;;;;;;;-0.88;76.98;100422.78;1743538;82;21812;-75
2021/12/10 00:03:47;;;;;;;52.13;29.35;;;;;;;-0.93;77.00;100419.40;1717372;82;21525;-75
2021/12/10 00:06:19;;;;;;;46.85;28.52;;;;;;;-0.95;77.05;100422.28;1743795;82;21585;-75
2021/12/10 00:08:50;;;;;;;49.13;29.60;;;;;;;-1.01;77.05;100414.62;1741678;81;21090;-75
2021/12/10 00:11:46;;;;;;;48.45;29.27;;;;;;;-1.02;77.19;100414.11;1743122;82;21075;-76
2021/12/10 00:14:13;;;;;;;55.00;30.97;;;;;;;-1.00;77.28;100407.34;1711485;83;21642;-76
2021/12/10 00:16:42;;;;;;;54.13;30.00;;;;;;;-0.99;77.32;100402.70;1695619;83;21107;-76
2021/12/10 00:21:43;;;;;;;55.33;31.75;;;;;;;-0.98;77.38;100388.08;1733076;82;21721;-76
2021/12/10 00:24:10;;;;;;;63.65;32.42;;;;;;;-1.03;77.18;100383.92;1733062;82;22526;-76
2021/12/10 00:26:37;;;;;;;52.60;29.67;;;;;;;-1.09;77.25;100381.32;1732944;82;21784;-76
2021/12/10 00:29:06;;;;;;;57.83;30.05;;;;;;;-1.08;77.43;100385.30;1732861;82;21207;-76
2021/12/10 00:34:27;;;;;;;55.55;31.68;;;;;;;-1.06;77.56;100381.53;1732410;82;21102;-76
2021/12/10 00:36:57;;;;;;;54.03;30.62;;;;;;;-1.04;77.53;100383.81;1732510;82;21098;-76
2021/12/10 00:39:28;;;;;;;56.65;30.48;;;;;;;-1.09;77.57;100374.86;1732647;82;21769;-75
2021/12/10 00:41:54;;;;;;;56.75;29.82;;;;;;;-1.09;77.68;100378.36;1732713;82;21102;-76
2021/12/10 00:44:23;;;;;;;53.80;29.60;;;;;;;-1.08;77.67;100380.13;1707642;82;21090;-76
2021/12/10 00:46:50;;;;;;;54.27;30.05;;;;;;;-1.11;77.66;100373.46;1732308;82;21668;-76
2021/12/10 00:49:17;;;;;;;50.33;29.27;;;;;;;-1.14;77.72;100374.58;1732491;82;21210;-75
2021/12/10 00:51:47;;;;;;;48.75;27.87;;;;;;;-1.10;77.87;100370.10;1744630;81;21788;-76
2021/12/10 00:54:12;;;;;;;55.70;28.12;;;;;;;-1.09;77.85;100369.32;1747821;82;21677;-75
2021/12/10 00:56:41;;;;;;;48.98;27.50;;;;;;;-1.08;77.87;100371.09;1748355;82;21627;-75
2021/12/10 00:59:12;;;;;;;51.83;28.02;;;;;;;-1.06;77.89;100375.95;1748431;82;21561;-75
2021/12/10 01:01:39;;;;;;;50.98;29.37;;;;;;;-1.04;77.90;100370.49;1748450;82;21141;-75
2021/12/10 01:04:16;;;;;;;45.88;26.68;;;;;;;-1.03;77.97;100371.41;1748336;82;21920;-75
2021/12/10 01:06:46;;;;;;;52.03;27.40;;;;;;;-1.01;77.94;100373.28;1748000;81;21074;-75
2021/12/10 01:09:18;;;;;;;47.83;28.00;;;;;;;-1.03;77.91;100377.46;1748795;82;21077;-75
2021/12/10 01:11:55;;;;;;;51.50;29.02;;;;;;;-1.04;77.93;100369.20;1748192;82;21171;-75
2021/12/10 01:14:37;;;;;;;48.10;28.47;;;;;;;-1.04;77.96;100367.02;1748300;82;21118;-74
2021/12/10 01:25:33;;;;;;;50.00;27.73;;;;;;;-1.05;78.13;100355.80;1748222;82;21082;-74
2021/12/10 01:27:49;;;;;;;47.58;28.25;;;;;;;-1.04;78.22;100346.36;1744663;81;21584;-75
2021/12/10 01:30:21;;;;;;;46.60;27.10;;;;;;;-1.04;78.17;100345.06;1748335;82;21839;-75
2021/12/10 01:32:53;;;;;;;45.75;26.65;;;;;;;-1.02;78.23;100346.05;1747074;81;21105;-75
2021/12/10 01:35:26;;;;;;;46.42;26.55;;;;;;;-1.05;78.19;100335.14;1747146;82;21065;-75
2021/12/10 01:37:52;;;;;;;46.85;27.58;;;;;;;-1.05;78.23;100331.27;1748225;82;21611;-75
2021/12/10 01:40:21;;;;;;;46.28;26.68;;;;;;;-1.08;78.25;100332.34;1748591;82;21171;-75
2021/12/10 01:42:51;;;;;;;47.15;26.37;;;;;;;-1.06;78.29;100342.78;1748309;82;22756;-75
2021/12/10 01:45:25;;;;;;;45.03;26.95;;;;;;;-1.18;78.38;100321.83;1748536;82;21072;-75
2021/12/10 01:48:05;;;;;;;47.53;28.62;;;;;;;-1.04;78.39;100329.56;1747301;82;21066;-75
2021/12/10 01:50:33;;;;;;;48.10;27.60;;;;;;;-1.05;78.40;100327.39;1748401;81;21039;-75
2021/12/10 01:53:04;;;;;;;43.25;27.05;;;;;;;-1.03;78.46;100319.34;1748686;82;21065;-75
2021/12/10 01:55:31;;;;;;;39.38;24.32;;;;;;;-1.01;78.51;100313.88;1748616;82;22498;-75
2021/12/10 01:57:57;;;;;;;47.48;25.68;;;;;;;-0.99;78.53;100308.81;1748443;82;21062;-75
2021/12/10 02:00:29;;;;;;;44.38;25.82;;;;;;;-1.00;78.48;100302.72;1721009;82;21137;-75
2021/12/10 02:02:56;;;;;;;41.92;24.72;;;;;;;-1.00;78.50;100297.55;1748360;82;21062;-75
2021/12/10 02:05:22;;;;;;;42.70;24.37;;;;;;;-0.97;78.57;100290.42;1748346;82;21051;-74
2021/12/10 02:07:49;;;;;;;42.93;24.55;;;;;;;-0.97;78.54;100291.71;1748202;82;22561;-75
2021/12/10 02:10:18;;;;;;;38.50;23.52;;;;;;;-0.97;78.57;100284.37;1748323;82;21073;-75
2021/12/10 02:12:45;;;;;;;39.88;23.77;;;;;;;-0.96;78.63;100281.86;1748146;81;21187;-75
2021/12/10 02:15:13;;;;;;;40.25;23.40;;;;;;;-0.94;78.68;100282.84;1748219;82;21536;-75
2021/12/10 02:17:44;;;;;;;40.70;23.25;;;;;;;-0.91;78.72;100278.29;1748311;82;21082;-75
2021/12/10 02:20:35;;;;;;;43.92;24.40;;;;;;;-0.90;78.66;100273.23;1748296;82;21821;-76
2021/12/10 02:23:03;;;;;;;39.18;22.02;;;;;;;-0.91;78.68;100267.95;1747194;81;21130;-76
2021/12/10 02:25:31;;;;;;;42.27;24.45;;;;;;;-0.88;78.76;100266.83;1748230;82;21062;-76
2021/12/10 02:27:59;;;;;;;38.85;23.12;;;;;;;-0.84;78.84;100265.84;1720265;82;21062;-76
2021/12/10 02:30:27;;;;;;;43.35;23.12;;;;;;;-0.81;78.83;100262.17;1748319;82;21624;-75
2021/12/10 02:32:54;;;;;;;42.33;23.60;;;;;;;-0.81;78.77;100258.67;1748418;82;22574;-75
2021/12/10 02:35:21;;;;;;;45.28;24.00;;;;;;;-0.79;78.81;100264.83;1748100;82;21079;-75
2021/12/10 02:37:47;;;;;;;44.48;23.98;;;;;;;-0.77;78.88;100263.64;1748134;82;21070;-75
2021/12/10 02:40:19;;;;;;;41.63;23.80;;;;;;;-0.75;78.83;100254.28;1747608;82;21054;-75
2021/12/10 02:42:48;;;;;;;41.30;24.07;;;;;;;-0.76;78.83;100253.41;1748278;82;21376;-75
2021/12/10 02:45:18;;;;;;;43.13;23.92;;;;;;;-0.73;78.88;100251.02;1748266;82;22382;-75
2021/12/10 02:47:45;;;;;;;43.95;24.12;;;;;;;-0.70;78.91;100258.05;1748253;82;21047;-75
2021/12/10 02:50:14;;;;;;;45.78;23.35;;;;;;;-0.68;78.93;100257.34;1751189;81;21065;-75
2021/12/10 02:52:41;;;;;;;48.48;24.55;;;;;;;-0.68;78.89;100241.83;1760188;81;21615;-75
2021/12/10 02:55:10;;;;;;;41.53;23.38;;;;;;;-0.66;79.01;100235.09;1760339;81;21805;-76
2021/12/10 02:57:38;;;;;;;41.63;22.73;;;;;;;-0.64;78.91;100239.04;1760412;81;21942;-76
2021/12/10 03:00:09;;;;;;;44.30;24.50;;;;;;;-0.65;78.90;100230.41;1760315;81;21556;-75
2021/12/10 03:02:38;;;;;;;44.42;24.45;;;;;;;-0.63;79.02;100228.80;1726950;81;21077;-76
2021/12/10 03:05:05;;;;;;;44.35;23.12;;;;;;;-0.62;78.99;100229.69;1760353;81;21093;-76
2021/12/10 03:07:32;;;;;;;43.98;23.65;;;;;;;-0.61;79.11;100225.91;1760492;81;21085;-75
2021/12/10 03:09:59;;;;;;;36.77;21.23;;;;;;;-0.59;79.10;100225.59;1760526;81;21193;-75
2021/12/10 03:12:25;;;;;;;41.55;22.82;;;;;;;-0.59;79.08;100224.30;1760545;81;21062;-76
2021/12/10 03:14:54;;;;;;;39.15;22.42;;;;;;;-0.62;79.05;100216.38;1760531;81;21077;-75
2021/12/10 03:17:25;;;;;;;40.12;22.40;;;;;;;-0.60;79.12;100213.90;1760460;81;21571;-75
2021/12/10 03:19:53;;;;;;;45.85;23.98;;;;;;;-0.61;79.11;100210.40;1760168;81;21081;-75
2021/12/10 03:22:19;;;;;;;35.85;21.15;;;;;;;-0.61;79.18;100198.77;1760405;81;21971;-76
2021/12/10 03:24:46;;;;;;;42.93;21.52;;;;;;;-0.60;79.23;100199.69;1760290;81;21031;-75
2021/12/10 03:27:14;;;;;;;42.85;22.60;;;;;;;-0.59;79.23;100194.98;1760328;81;21166;-75
2021/12/10 03:29:44;;;;;;;37.50;21.17;;;;;;;-0.59;79.26;100191.99;1759103;81;21112;-75
2021/12/10 03:32:21;;;;;;;34.58;20.35;;;;;;;-0.60;79.16;100189.34;1760279;81;21121;-75
2021/12/10 03:34:47;;;;;;;35.45;20.52;;;;;;;-0.63;79.21;100191.73;1760204;81;21767;-75
2021/12/10 03:37:17;;;;;;;32.55;18.55;;;;;;;-0.63;79.23;100179.69;1760272;81;21026;-75
2021/12/10 03:39:43;;;;;;;33.78;18.85;;;;;;;-0.62;79.32;100168.56;1760565;81;21077;-75
2021/12/10 03:42:11;;;;;;;42.48;21.73;;;;;;;-0.67;79.23;100160.92;1760339;81;21023;-75
2021/12/10 03:44:38;;;;;;;35.23;19.87;;;;;;;-0.66;79.33;100167.89;1760418;81;21578;-76
2021/12/10 03:47:06;;;;;;;38.50;21.17;;;;;;;-0.65;79.39;100158.44;1760622;81;22605;-75
2021/12/10 03:49:33;;;;;;;39.48;20.97;;;;;;;-0.64;79.44;100163.70;1760419;81;21202;-75
2021/12/10 03:52:00;;;;;;;37.63;20.55;;;;;;;-0.63;79.51;100149.97;1760015;81;21802;-76
2021/12/10 03:54:30;;;;;;;42.00;20.88;;;;;;;-0.60;79.51;100135.06;1760377;81;21070;-76
2021/12/10 03:56:56;;;;;;;34.92;20.65;;;;;;;-0.61;79.45;100128.09;1759697;81;21591;-75
2021/12/10 03:59:23;;;;;;;38.42;21.55;;;;;;;-0.61;79.45;100144.89;1760576;81;21693;-75
2021/12/10 04:01:55;;;;;;;38.83;20.90;;;;;;;-0.60;79.54;100158.33;1760260;81;21093;-76
2021/12/10 04:04:26;;;;;;;46.53;21.45;;;;;;;-0.61;79.51;100146.19;1759902;81;21658;-76
2021/12/10 04:06:55;;;;;;;39.78;21.50;;;;;;;-0.62;79.58;100145.68;1727865;81;21634;-75
2021/12/10 04:09:23;;;;;;;37.83;21.27;;;;;;;-0.61;79.61;100148.77;1760576;81;21686;-75
2021/12/10 04:11:51;;;;;;;40.92;21.50;;;;;;;-0.59;79.63;100148.05;1760492;81;21757;-75
2021/12/10 04:14:18;;;;;;;42.23;20.90;;;;;;;-0.59;79.64;100148.45;1760628;81;21069;-75
2021/12/10 04:16:45;;;;;;;36.05;19.40;;;;;;;-0.60;79.67;100144.98;1760655;81;21513;-75
2021/12/10 04:19:13;;;;;;;34.75;18.92;;;;;;;-0.60;79.67;100138.94;1760481;81;21058;-75
2021/12/10 04:21:41;;;;;;;37.63;20.12;;;;;;;-0.61;79.74;100135.44;1760369;81;21133;-75
2021/12/10 04:24:17;;;;;;;36.33;21.60;;;;;;;-0.58;79.70;100141.21;1760427;81;21987;-75
2021/12/10 04:26:44;;;;;;;38.40;20.72;;;;;;;-0.61;79.70;100135.84;1760379;81;21587;-75
2021/12/10 04:29:11;;;;;;;36.33;20.68;;;;;;;-0.62;79.74;100129.80;1760586;81;21007;-75
2021/12/10 04:31:37;;;;;;;37.55;19.75;;;;;;;-0.61;79.80;100136.73;1760607;81;21050;-75
2021/12/10 04:34:04;;;;;;;39.00;21.42;;;;;;;-0.63;79.77;100124.53;1760830;81;21015;-75
2021/12/10 04:36:31;;;;;;;39.67;21.00;;;;;;;-0.62;79.86;100127.20;1760898;81;22632;-75
2021/12/10 04:38:58;;;;;;;37.35;19.92;;;;;;;-0.61;79.90;100121.63;1760656;81;21097;-75
2021/12/10 04:41:25;;;;;;;35.50;19.60;;;;;;;-0.62;79.90;100114.28;1760598;81;21080;-75
2021/12/10 04:43:52;;;;;;;42.30;19.85;;;;;;;-0.57;79.97;100117.53;1760511;81;21053;-75
2021/12/10 04:46:18;;;;;;;39.70;21.40;;;;;;;-0.56;79.99;100120.22;1760655;81;21133;-75
2021/12/10 04:49:02;;;;;;;37.28;20.55;;;;;;;-0.55;79.98;100114.64;1760862;81;22425;-75
2021/12/10 04:51:34;;;;;;;44.05;21.62;;;;;;;-0.54;79.98;100127.66;1754549;81;21070;-75
2021/12/10 04:54:01;;;;;;;40.75;19.60;;;;;;;-0.55;79.98;100118.11;1758785;81;21606;-75
2021/12/10 04:56:28;;;;;;;39.63;21.45;;;;;;;-0.55;79.99;100123.69;1761451;81;21108;-75
2021/12/10 04:58:58;;;;;;;37.00;19.70;;;;;;;-0.52;80.04;100130.34;1760912;81;21117;-75
2021/12/10 05:01:28;;;;;;;34.98;19.60;;;;;;;-0.54;80.06;100126.37;1761525;80;21821;-75
2021/12/10 05:03:55;;;;;;;34.85;19.73;;;;;;;-0.53;80.04;100126.84;1761355;81;21096;-76
2021/12/10 05:06:22;;;;;;;32.75;18.30;;;;;;;-0.53;80.01;100127.25;1761329;81;21104;-74
2021/12/10 05:08:48;;;;;;;33.65;19.52;;;;;;;-0.54;80.05;100125.08;1761371;81;21567;-75
2021/12/10 05:11:15;;;;;;;35.92;19.70;;;;;;;-0.52;80.05;100129.05;1761615;81;21558;-74
2021/12/10 05:13:45;;;;;;;34.83;18.73;;;;;;;-0.53;80.13;100122.96;1761355;81;21922;-75
2021/12/10 05:16:17;;;;;;;34.75;19.80;;;;;;;-0.51;80.14;100119.18;1761312;80;21568;-75
2021/12/10 05:18:48;;;;;;;34.48;19.77;;;;;;;-0.52;80.09;100112.25;1760842;81;21092;-74
2021/12/10 05:21:14;;;;;;;35.90;19.42;;;;;;;-0.51;80.15;100108.84;1761066;80;21572;-75
2021/12/10 05:23:41;;;;;;;39.15;20.92;;;;;;;-0.48;80.19;100095.70;1761028;80;21081;-74
2021/12/10 05:26:07;;;;;;;42.67;23.52;;;;;;;-0.48;80.13;100105.16;1761001;80;21788;-76
2021/12/10 05:28:36;;;;;;;41.95;23.22;;;;;;;-0.48;80.17;100093.52;1731656;80;21446;-76
2021/12/10 05:31:02;;;;;;;34.53;21.60;;;;;;;-0.48;80.13;100099.98;1761142;80;21563;-76
2021/12/10 05:33:29;;;;;;;38.83;21.52;;;;;;;-0.51;80.13;100088.16;1761449;81;21117;-76
2021/12/10 05:35:57;;;;;;;33.95;21.10;;;;;;;-0.50;80.26;100086.08;1761449;81;21061;-75
2021/12/10 05:38:25;;;;;;;32.42;19.15;;;;;;;-0.48;80.26;100089.64;1762326;81;21756;-85
2021/12/10 05:40:53;;;;;;;34.58;17.92;;;;;;;-0.48;80.24;100081.48;1762980;81;21077;-86
2021/12/10 05:43:22;;;;;;;35.80;18.95;;;;;;;-0.49;80.19;100078.42;1762715;81;21065;-86
2021/12/10 05:45:52;;;;;;;27.40;17.20;;;;;;;-0.51;80.18;100081.28;1762847;81;21420;-85
2021/12/10 05:48:18;;;;;;;29.70;17.60;;;;;;;-0.50;80.29;100077.03;1762464;80;21061;-86
2021/12/10 05:50:45;;;;;;;35.50;18.75;;;;;;;-0.51;80.28;100075.23;1762598;80;21818;-85
2021/12/10 05:53:12;;;;;;;32.15;17.80;;;;;;;-0.54;80.29;100077.25;1759895;81;21070;-86
2021/12/10 05:55:39;;;;;;;30.50;18.07;;;;;;;-0.54;80.40;100072.49;1759573;81;21586;-73
2021/12/10 05:58:09;;;;;;;30.17;17.85;;;;;;;-0.56;80.41;100066.31;1758713;81;21634;-73
2021/12/10 06:00:39;;;;;;;31.37;18.55;;;;;;;-0.56;80.53;100063.34;1722597;82;21101;-80
2021/12/10 06:03:10;;;;;;;32.95;17.65;;;;;;;-0.56;80.57;100063.34;1706056;84;21787;-79
2021/12/10 06:05:40;;;;;;;29.75;17.80;;;;;;;-0.59;80.49;100065.33;1706995;83;21097;-79
2021/12/10 06:08:06;;;;;;;33.08;18.40;;;;;;;-0.61;80.64;100059.19;1692107;84;21130;-74
2021/12/10 06:10:33;;;;;;;27.98;17.32;;;;;;;-0.66;80.69;100056.76;1706766;84;21204;-74
2021/12/10 06:12:59;;;;;;;29.12;16.97;;;;;;;-0.61;80.68;100066.05;1706875;84;21099;-73
2021/12/10 06:15:28;;;;;;;31.02;18.07;;;;;;;-0.63;80.72;100067.66;1706347;84;21531;-73
2021/12/10 06:17:54;;;;;;;29.90;17.10;;;;;;;-0.63;80.87;100071.13;1691955;84;21054;-74
2021/12/10 06:20:26;;;;;;;29.87;17.00;;;;;;;-0.63;80.78;100075.01;1706675;84;21549;-74
2021/12/10 06:22:53;;;;;;;29.18;17.50;;;;;;;-0.64;80.89;100070.66;1692148;84;21030;-73
2021/12/10 06:25:20;;;;;;;33.53;18.75;;;;;;;-0.64;80.97;100077.12;1706686;84;21656;-74
2021/12/10 06:27:46;;;;;;;35.70;20.92;;;;;;;-0.65;80.98;100074.03;1706548;84;22628;-73
2021/12/10 06:30:16;;;;;;;36.83;20.40;;;;;;;-0.66;80.97;100067.47;1706831;84;21057;-74
2021/12/10 06:32:43;;;;;;;34.18;20.77;;;;;;;-0.69;80.98;100064.32;1692553;84;21062;-73
2021/12/10 06:35:10;;;;;;;29.70;19.23;;;;;;;-0.68;81.07;100061.33;1693904;84;21070;-74
2021/12/10 06:37:38;;;;;;;31.00;18.60;;;;;;;-0.66;81.19;100056.76;1706915;82;21094;-73
2021/12/10 06:40:07;;;;;;;27.40;17.62;;;;;;;-0.67;81.15;100056.25;1706842;84;21853;-73
2021/12/10 06:42:34;;;;;;;27.27;17.10;;;;;;;-0.63;81.24;100051.74;1706766;84;21691;-73
2021/12/10 06:45:05;;;;;;;32.88;19.27;;;;;;;-0.63;81.06;100049.57;1722342;83;21070;-73
2021/12/10 06:47:36;;;;;;;32.85;19.32;;;;;;;-0.64;81.13;100047.40;1722765;81;21164;-73
2021/12/10 06:50:00;;;;;;;34.67;19.77;;;;;;;-0.65;81.15;100048.19;1722480;83;21345;-73
2021/12/10 06:52:27;;;;;;;31.45;19.05;;;;;;;-0.64;81.25;100036.14;1745885;80;21767;-73
2021/12/10 06:54:54;;;;;;;30.37;18.12;;;;;;;-0.62;81.23;100041.91;1758350;80;21300;-73
2021/12/10 06:57:20;;;;;;;32.20;19.50;;;;;;;-0.60;81.21;100035.55;1758831;80;21218;-73
2021/12/10 06:59:47;;;;;;;27.93;17.35;;;;;;;-0.59;81.22;100039.89;1758703;79;21046;-73
2021/12/10 07:02:14;;;;;;;27.00;17.17;;;;;;;-0.60;81.15;100033.84;1758486;81;21634;-73
2021/12/10 07:04:45;;;;;;;32.03;18.25;;;;;;;-0.61;81.16;100029.87;1758452;79;21744;-73
2021/12/10 07:07:09;;;;;;;33.18;21.07;;;;;;;-0.59;81.26;100035.61;1757804;79;21093;-73
2021/12/10 07:09:36;;;;;;;33.55;19.82;;;;;;;-0.55;81.32;100035.80;1758456;79;21089;-74
2021/12/10 07:12:04;;;;;;;35.50;20.72;;;;;;;-0.54;81.25;100031.13;1758362;81;21160;-73
2021/12/10 07:14:30;;;;;;;31.77;18.85;;;;;;;-0.54;81.22;100035.01;1758548;79;21650;-73
2021/12/10 07:16:57;;;;;;;31.60;19.32;;;;;;;-0.53;81.23;100028.61;1758528;79;21734;-73
2021/12/10 07:19:26;;;;;;;33.25;19.20;;;;;;;-0.61;81.26;100007.48;1758660;81;21698;-73
2021/12/10 07:21:53;;;;;;;34.35;19.32;;;;;;;-0.52;81.30;100021.36;1758673;80;21063;-73
2021/12/10 07:24:19;;;;;;;31.60;18.60;;;;;;;-0.49;81.33;100021.55;1758811;79;21198;-73
2021/12/10 07:26:46;;;;;;;35.65;18.57;;;;;;;-0.47;81.37;100020.31;1758655;80;21084;-73
2021/12/10 07:29:15;;;;;;;30.65;17.12;;;;;;;-0.43;81.41;100018.00;1728091;81;21093;-73
2021/12/10 07:31:42;;;;;;;33.50;18.73;;;;;;;-0.40;81.38;100010.41;1758457;81;21657;-73
2021/12/10 07:34:11;;;;;;;32.75;18.60;;;;;;;-0.37;81.36;100008.41;1758049;79;21109;-73
2021/12/10 07:36:40;;;;;;;28.90;17.25;;;;;;;-0.35;81.31;100002.04;1758568;81;21563;-73
2021/12/10 07:39:08;;;;;;;31.37;18.10;;;;;;;-0.34;81.31;100004.69;1758601;80;21582;-73
2021/12/10 07:41:35;;;;;;;32.17;18.48;;;;;;;-0.31;81.27;100002.70;1758396;79;21766;-73
2021/12/10 07:44:02;;;;;;;31.17;18.02;;;;;;;-0.29;81.33;100007.14;1758256;79;21062;-73
2021/12/10 07:46:28;;;;;;;30.95;18.67;;;;;;;-0.26;81.34;100009.03;1728936;80;21120;-73
2021/12/10 07:48:55;;;;;;;28.32;17.52;;;;;;;-0.25;81.28;100008.20;1758314;80;21217;-73
2021/12/10 07:51:26;;;;;;;27.05;17.12;;;;;;;-0.20;81.34;100006.77;1757669;79;21641;-73
2021/12/10 07:53:57;;;;;;;25.82;16.90;;;;;;;-0.18;81.30;99999.98;1748233;82;21799;-73
2021/12/10 07:56:22;;;;;;;26.40;16.45;;;;;;;-0.16;81.25;100002.66;1748302;81;21133;-73
2021/12/10 07:58:48;;;;;;;26.10;15.90;;;;;;;-0.16;81.26;99994.91;1748351;82;21595;-73
2021/12/10 08:01:24;;;;;;;26.37;16.17;;;;;;;-0.16;81.24;99997.49;1748234;82;21081;-73
2021/12/10 08:03:51;;;;;;;26.42;16.87;;;;;;;-0.15;81.28;99998.88;1748414;82;21085;-73
2021/12/10 08:06:22;;;;;;;27.27;17.12;;;;;;;-0.14;81.23;100001.05;1748404;81;22574;-73
2021/12/10 08:08:46;;;;;;;31.02;17.05;;;;;;;-0.17;81.25;100009.92;1747861;82;21148;-73
2021/12/10 08:11:12;;;;;;;27.07;16.95;;;;;;;-0.19;81.28;100011.13;1748295;80;21757;-74
2021/12/10 08:13:39;;;;;;;26.82;17.50;;;;;;;-0.17;81.39;100008.62;1748318;82;21070;-73
2021/12/10 08:16:06;;;;;;;28.83;17.17;;;;;;;-0.16;81.47;100008.72;1748322;81;21054;-73
2021/12/10 08:18:32;;;;;;;29.05;17.95;;;;;;;-0.14;81.46;100005.81;1748478;81;21795;-73
2021/12/10 08:20:59;;;;;;;30.25;17.77;;;;;;;-0.13;81.50;100004.11;1748330;82;21547;-73
2021/12/10 08:23:26;;;;;;;33.48;19.62;;;;;;;-0.09;81.55;99999.62;1748599;81;21042;-73
2021/12/10 08:25:53;;;;;;;44.98;25.50;;;;;;;-0.08;81.54;99996.20;1748438;82;21108;-73
2021/12/10 08:28:22;;;;;;;44.13;27.48;;;;;;;-0.08;81.53;99987.16;1748650;82;21152;-73
2021/12/10 08:30:48;;;;;;;45.25;25.55;;;;;;;-0.07;81.52;99994.13;1748429;81;21772;-73
2021/12/10 08:33:15;;;;;;;44.18;25.45;;;;;;;-0.06;81.61;99991.59;1748360;82;21026;-73
2021/12/10 08:35:45;;;;;;;43.80;26.27;;;;;;;0.00;81.64;99991.07;1748068;82;21389;-73
2021/12/10 08:38:12;;;;;;;47.53;25.02;;;;;;;0.04;81.62;99985.25;1748149;81;21101;-73
2021/12/10 08:40:50;;;;;;;39.35;22.62;;;;;;;0.09;81.59;99986.37;1748581;82;21045;-73
2021/12/10 08:43:17;;;;;;;36.90;21.82;;;;;;;0.11;81.46;99979.61;1744861;82;21769;-73
2021/12/10 08:45:45;;;;;;;33.67;19.30;;;;;;;0.11;81.37;99976.11;1748580;81;21093;-73
2021/12/10 08:48:12;;;;;;;33.08;18.35;;;;;;;0.13;81.47;99965.05;1748832;80;21086;-73
2021/12/10 08:50:39;;;;;;;32.38;19.48;;;;;;;0.18;81.52;99971.34;1748485;82;21136;-73
2021/12/10 08:53:09;;;;;;;34.15;21.70;;;;;;;0.22;81.53;99976.69;1754889;80;21153;-73
2021/12/10 08:55:36;;;;;;;32.80;19.55;;;;;;;0.28;81.59;99978.30;1758313;79;22667;-73
2021/12/10 08:58:04;;;;;;;33.02;20.10;;;;;;;0.35;81.55;99980.42;1758490;81;21552;-73
2021/12/10 09:00:31;;;;;;;37.08;21.90;;;;;;;0.37;81.43;99981.39;1758829;81;21709;-74
2021/12/10 09:02:58;;;;;;;34.20;21.80;;;;;;;0.38;81.40;99976.30;1758418;81;21155;-73
2021/12/10 09:05:25;;;;;;;32.17;19.52;;;;;;;0.43;81.38;99987.30;1758560;80;21061;-73
2021/12/10 09:07:52;;;;;;;36.80;20.17;;;;;;;0.52;81.45;99985.20;1758488;79;21793;-73
2021/12/10 09:10:23;;;;;;;33.90;20.45;;;;;;;0.63;81.52;99983.17;1758655;79;21109;-73
2021/12/10 09:12:50;;;;;;;25.68;17.50;;;;;;;0.77;81.50;99980.91;1758689;80;21142;-73
2021/12/10 09:15:20;;;;;;;29.37;17.17;;;;;;;0.88;81.41;99980.14;1758623;81;21627;-73
2021/12/10 09:17:45;;;;;;;26.07;17.92;;;;;;;0.92;81.16;99980.39;1758468;79;21174;-73
2021/12/10 09:20:17;;;;;;;26.55;16.40;;;;;;;0.91;80.98;99970.83;1758381;80;21731;-73
2021/12/10 09:22:43;;;;;;;26.37;16.93;;;;;;;0.89;80.79;99983.23;1758677;80;21081;-73
2021/12/10 09:25:10;;;;;;;27.87;17.17;;;;;;;0.86;80.80;99976.17;1758327;81;21078;-73
2021/12/10 09:27:37;;;;;;;29.70;17.55;;;;;;;0.84;80.75;99972.61;1758261;81;21102;-73
2021/12/10 09:30:08;;;;;;;26.95;15.80;;;;;;;0.80;80.69;99972.39;1758390;79;21065;-73
2021/12/10 09:32:34;;;;;;;27.20;17.10;;;;;;;0.75;80.66;99973.05;1759041;81;22585;-73
2021/12/10 09:35:06;;;;;;;22.93;15.13;;;;;;;0.71;80.75;99975.01;1758436;79;21076;-73
2021/12/10 09:37:35;;;;;;;26.02;16.17;;;;;;;0.71;80.84;99966.33;1759109;79;21073;-74
2021/12/10 09:40:06;;;;;;;27.22;16.32;;;;;;;0.75;80.93;99970.84;1758718;79;21116;-73
2021/12/10 09:42:32;;;;;;;26.02;16.00;;;;;;;0.78;81.11;99950.29;1758083;81;21077;-73
2021/12/10 09:44:59;;;;;;;22.07;15.95;;;;;;;0.94;80.99;99961.92;1758373;80;21713;-73
2021/12/10 09:47:26;;;;;;;25.27;16.12;;;;;;;1.02;80.87;99957.54;1758693;81;21077;-73
2021/12/10 09:49:55;;;;;;;24.37;17.00;;;;;;;1.11;80.98;99942.04;1757955;80;21153;-73
2021/12/10 09:52:23;;;;;;;27.07;16.15;;;;;;;1.21;80.89;99930.41;1762139;80;21056;-73
2021/12/10 09:54:50;;;;;;;24.77;16.90;;;;;;;1.30;80.76;99936.47;1777853;80;21078;-73
2021/12/10 09:57:24;;;;;;;29.27;17.45;;;;;;;1.33;80.57;99941.39;1777747;80;22601;-73
2021/12/10 09:59:51;;;;;;;31.87;18.10;;;;;;;1.33;80.36;99939.19;1776808;79;21096;-73
2021/12/10 10:02:19;;;;;;;27.02;16.82;;;;;;;1.35;80.41;99947.92;1778066;79;21079;-73
2021/12/10 10:04:49;;;;;;;28.32;18.25;;;;;;;1.39;80.34;99951.56;1777995;79;21091;-73
2021/12/10 10:07:17;;;;;;;29.65;17.20;;;;;;;1.41;80.26;99947.34;1778058;80;21067;-73
2021/12/10 10:09:46;;;;;;;28.77;17.70;;;;;;;1.43;80.26;99949.21;1778332;80;23051;-73
2021/12/10 10:12:17;;;;;;;33.65;19.23;;;;;;;1.45;80.19;99941.51;1778327;79;21087;-73
2021/12/10 10:14:44;;;;;;;28.62;17.55;;;;;;;1.50;80.15;99940.00;1778274;80;21095;-73
2021/12/10 10:17:12;;;;;;;29.35;17.32;;;;;;;1.56;80.30;99942.92;1778301;80;21232;-73
2021/12/10 10:19:39;;;;;;;29.30;17.25;;;;;;;1.74;80.35;99933.80;1778425;80;21649;-73
2021/12/10 10:22:09;;;;;;;26.40;16.73;;;;;;;1.94;80.40;99936.92;1778133;80;21757;-73
2021/12/10 10:24:35;;;;;;;24.77;16.23;;;;;;;2.07;80.11;99936.20;1778117;80;22137;-73
2021/12/10 10:27:07;;;;;;;22.17;15.03;;;;;;;2.12;79.85;99934.68;1778183;80;21071;-73
2021/12/10 10:29:37;;;;;;;27.17;17.02;;;;;;;2.12;79.66;99926.89;1778124;79;21593;-73
2021/12/10 10:32:10;;;;;;;23.52;15.68;;;;;;;2.10;79.55;99929.83;1778268;80;21147;-73
2021/12/10 10:34:45;;;;;;;25.40;16.35;;;;;;;2.14;79.56;99930.48;1777696;80;21696;-73
2021/12/10 10:37:11;;;;;;;24.98;16.32;;;;;;;2.09;79.30;99936.73;1777364;80;21138;-73
2021/12/10 10:39:40;;;;;;;29.30;17.10;;;;;;;2.05;79.28;99938.72;1753852;80;21107;-73
2021/12/10 10:42:12;;;;;;;29.42;18.42;;;;;;;2.00;79.28;99929.83;1778227;80;21588;-73
2021/12/10 10:44:38;;;;;;;30.85;18.57;;;;;;;1.96;79.28;99933.11;1778222;80;21112;-73
2021/12/10 10:47:05;;;;;;;34.98;18.62;;;;;;;1.91;79.16;99927.68;1778349;80;21676;-73
2021/12/10 10:49:39;;;;;;;37.83;20.95;;;;;;;1.87;79.35;99934.85;1778232;80;21106;-73
2021/12/10 10:52:28;;;;;;;31.17;20.15;;;;;;;1.86;79.30;99943.86;1753387;80;21091;-73
2021/12/10 10:54:54;;;;;;;31.95;20.12;;;;;;;1.83;79.32;99952.81;1777549;80;21059;-73
2021/12/10 10:57:27;;;;;;;36.55;20.97;;;;;;;1.78;79.36;99936.14;1777900;79;22290;-73
2021/12/10 10:59:57;;;;;;;31.12;17.55;;;;;;;1.78;79.42;99939.61;1778332;80;21912;-73
2021/12/10 11:02:27;;;;;;;37.03;21.80;;;;;;;1.74;79.37;99941.17;1778096;80;21110;-73
2021/12/10 11:04:53;;;;;;;34.67;22.27;;;;;;;1.71;79.29;99937.57;1778116;79;21126;-73
2021/12/10 11:07:27;;;;;;;42.13;25.05;;;;;;;1.71;79.48;99933.68;1778236;79;21572;-73
2021/12/10 11:09:58;;;;;;;36.53;23.20;;;;;;;1.70;79.38;99938.38;1778332;79;21087;-72
2021/12/10 11:12:37;;;;;;;34.13;20.55;;;;;;;1.67;79.44;99930.43;1778428;80;21796;-72
2021/12/10 11:15:13;;;;;;;34.53;21.05;;;;;;;1.66;79.43;99929.55;1778192;80;21201;-72
2021/12/10 11:17:50;;;;;;;39.13;22.90;;;;;;;1.65;79.46;99936.88;1778403;79;21091;-72
2021/12/10 11:20:33;;;;;;;36.08;22.00;;;;;;;1.66;79.57;99929.55;1777469;80;21110;-71
2021/12/10 11:23:05;;;;;;;40.40;23.90;;;;;;;1.68;79.58;99928.34;1778043;79;21087;-72
2021/12/10 11:25:45;;;;;;;38.63;23.40;;;;;;;1.72;79.65;99928.53;1778621;79;21854;-75
2021/12/10 11:28:19;;;;;;;37.42;22.55;;;;;;;1.78;79.62;99929.65;1778420;80;21577;-73
2021/12/10 11:30:52;;;;;;;36.80;22.62;;;;;;;1.81;79.63;99925.91;1778355;80;21091;-73
2021/12/10 11:33:22;;;;;;;33.05;20.57;;;;;;;1.85;79.60;99926.11;1778340;80;21107;-72
2021/12/10 11:35:53;;;;;;;44.58;23.40;;;;;;;1.85;79.44;99923.94;1778476;80;21067;-73